Time;durP1;ratioP1;P1;durP2;ratioP2;P2;SDS_P1;SDS_P2;PMS_P1;PMS_P2;Temp;Humidity;BMP_temperature;BMP_pressure;BME280_temperature;BME280_humidity;BME280_pressure;Samples;Min_cycle;Max_cycle;Signal;HPM_P1;HPM_P2
2021/06/22 00:00:15;;;;;;;14.45;5.82;;;;;;;26.85;51.75;99318.28;5135376;27;20050;-75
2021/06/22 00:02:43;;;;;;;8.15;5.13;;;;;;;26.65;52.23;99310.19;5135212;27;20134;-77
2021/06/22 00:05:16;;;;;;;8.48;4.68;;;;;;;26.62;52.32;99316.09;5135282;27;20050;-76
2021/06/22 00:07:44;;;;;;;8.88;5.00;;;;;;;26.58;52.58;99321.16;5135728;27;20464;-75
2021/06/22 00:10:17;;;;;;;11.40;4.97;;;;;;;26.64;52.50;99323.03;5135244;27;20123;-75
2021/06/22 00:12:46;;;;;;;11.48;5.50;;;;;;;26.55;52.76;99323.50;5135547;27;20043;-77
2021/06/22 00:15:17;;;;;;;8.50;4.85;;;;;;;26.56;53.19;99326.03;5135198;27;20047;-78
2021/06/22 00:17:47;;;;;;;8.63;4.78;;;;;;;26.37;53.71;99316.84;5135543;27;20492;-76
2021/06/22 00:20:19;;;;;;;8.13;5.40;;;;;;;26.35;54.04;99309.91;5135178;27;20479;-76
2021/06/22 00:22:47;;;;;;;9.43;5.50;;;;;;;26.30;54.08;99309.69;5117429;27;20438;-77
2021/06/22 00:25:17;;;;;;;9.20;5.35;;;;;;;26.31;54.63;99311.38;5135058;27;20467;-76
2021/06/22 00:27:46;;;;;;;6.85;5.20;;;;;;;26.19;54.80;99312.06;5135011;27;20096;-78
2021/06/22 00:30:15;;;;;;;9.55;5.30;;;;;;;26.14;55.13;99295.44;5134988;27;20088;-80
2021/06/22 00:32:45;;;;;;;10.35;5.47;;;;;;;26.15;55.32;99297.16;5135371;27;20481;-79
2021/06/22 00:35:14;;;;;;;9.48;5.28;;;;;;;26.04;55.66;99292.31;5134824;27;20080;-79
2021/06/22 00:37:44;;;;;;;8.18;5.38;;;;;;;25.96;56.14;99285.22;5135074;27;20090;-80
2021/06/22 00:40:16;;;;;;;9.45;5.53;;;;;;;26.10;55.69;99291.47;5135042;27;20039;-81
2021/06/22 00:42:46;;;;;;;8.48;5.40;;;;;;;25.92;56.09;99288.59;5134926;27;20047;-81
2021/06/22 00:45:16;;;;;;;11.32;5.53;;;;;;;25.86;56.81;99292.16;5134456;27;20134;-82
2021/06/22 00:47:45;;;;;;;11.85;5.90;;;;;;;25.84;56.75;99283.34;5134870;27;20092;-81
2021/06/22 00:50:13;;;;;;;8.82;5.28;;;;;;;25.72;57.47;99290.53;5134418;27;20438;-81
2021/06/22 00:52:44;;;;;;;7.63;5.07;;;;;;;25.76;57.11;99297.25;5135038;27;20070;-81
2021/06/22 00:55:13;;;;;;;8.77;5.63;;;;;;;25.62;58.15;99297.25;5134446;27;20088;-81
2021/06/22 00:58:16;;;;;;;10.82;6.00;;;;;;;25.66;57.78;99301.22;5134538;27;20061;-76
2021/06/22 01:00:44;;;;;;;8.27;5.70;;;;;;;25.59;57.82;99303.13;5134600;27;20053;-76
2021/06/22 01:03:13;;;;;;;10.93;6.28;;;;;;;25.51;58.51;99303.34;5133887;27;20092;-76
2021/06/22 01:05:42;;;;;;;12.35;6.15;;;;;;;25.51;58.39;99300.63;5134412;27;20046;-76
2021/06/22 01:08:13;;;;;;;8.98;5.82;;;;;;;25.51;58.61;99300.63;5134191;27;20046;-77
2021/06/22 01:10:41;;;;;;;9.35;5.38;;;;;;;25.59;58.23;99297.69;5134519;27;20548;-76
2021/06/22 01:13:10;;;;;;;8.48;5.90;;;;;;;25.60;58.41;99307.53;5133247;27;20134;-78
2021/06/22 01:15:39;;;;;;;9.60;5.78;;;;;;;25.53;58.96;99297.69;5134518;27;20063;-77
2021/06/22 01:18:07;;;;;;;10.25;6.32;;;;;;;25.34;59.48;99300.22;5134446;27;20039;-78
2021/06/22 01:20:36;;;;;;;10.32;6.10;;;;;;;25.30;59.64;99303.59;5134608;27;20042;-77
2021/06/22 01:23:07;;;;;;;9.95;5.63;;;;;;;25.24;60.02;99309.88;5134661;27;20084;-76
2021/06/22 01:25:37;;;;;;;10.52;6.10;;;;;;;25.29;59.69;99315.56;5134100;27;20043;-78
2021/06/22 01:28:06;;;;;;;11.35;5.88;;;;;;;25.21;60.36;99321.22;5134245;27;20043;-80
2021/06/22 01:30:35;;;;;;;9.43;6.38;;;;;;;24.99;61.17;99320.50;5134104;27;20051;-79
2021/06/22 01:33:03;;;;;;;11.02;5.90;;;;;;;24.92;61.37;99328.69;5134440;27;20039;-78
2021/06/22 01:35:33;;;;;;;12.43;6.40;;;;;;;25.13;60.75;99335.06;5133532;28;20051;-78
2021/06/22 01:38:06;;;;;;;12.70;6.65;;;;;;;25.06;60.73;99333.16;5134396;28;20046;-79
2021/06/22 01:40:44;;;;;;;8.25;5.78;;;;;;;24.98;61.24;99329.75;5133949;28;20122;-75
2021/06/22 01:43:13;;;;;;;9.57;6.22;;;;;;;25.03;60.94;99341.75;5133904;28;20046;-78
2021/06/22 01:45:41;;;;;;;9.65;5.90;;;;;;;24.96;61.40;99343.59;5134104;28;20388;-74
2021/06/22 01:48:09;;;;;;;11.82;6.35;;;;;;;24.84;62.01;99345.25;5133659;28;20491;-75
2021/06/22 01:50:38;;;;;;;10.10;6.30;;;;;;;24.71;62.46;99345.22;5133621;28;20088;-73
2021/06/22 01:53:06;;;;;;;14.20;6.97;;;;;;;24.71;62.55;99356.13;5133922;28;20063;-72
2021/06/22 01:55:39;;;;;;;10.18;6.60;;;;;;;24.74;62.43;99363.91;5133657;28;20383;-73
2021/06/22 01:58:10;;;;;;;13.82;6.63;;;;;;;24.54;63.44;99355.66;5133435;28;20055;-73
2021/06/22 02:00:40;;;;;;;10.32;6.60;;;;;;;24.44;63.87;99360.66;5134030;28;20472;-73
2021/06/22 02:03:14;;;;;;;10.75;6.45;;;;;;;24.57;63.16;99357.97;5133975;28;20172;-72
2021/06/22 02:05:43;;;;;;;11.35;6.30;;;;;;;24.66;62.96;99358.63;5133789;28;20047;-78
2021/06/22 02:08:12;;;;;;;11.93;7.03;;;;;;;24.41;63.79;99359.16;5133845;28;20062;-77
2021/06/22 02:10:40;;;;;;;10.20;6.28;;;;;;;24.37;64.08;99346.97;5133856;28;20043;-74
2021/06/22 02:13:10;;;;;;;11.02;7.00;;;;;;;24.22;64.89;99359.84;5133835;28;20051;-73
2021/06/22 02:15:39;;;;;;;14.48;7.00;;;;;;;24.28;64.65;99353.63;5133858;28;20039;-73
2021/06/22 02:18:09;;;;;;;14.90;7.45;;;;;;;24.18;65.35;99353.16;5133640;28;20491;-73
2021/06/22 02:20:39;;;;;;;11.48;6.78;;;;;;;24.20;65.29;99351.06;5133289;28;20039;-73
2021/06/22 02:23:08;;;;;;;13.13;6.93;;;;;;;24.27;65.01;99346.50;5133720;28;20066;-75
2021/06/22 02:25:37;;;;;;;15.70;7.30;;;;;;;24.22;65.48;99340.78;5136103;27;20053;-76
2021/06/22 02:28:07;;;;;;;15.45;7.18;;;;;;;24.04;66.17;99335.06;5137615;27;20459;-77
2021/06/22 02:30:39;;;;;;;14.02;6.75;;;;;;;23.90;66.69;99345.84;5137241;27;20039;-76
2021/06/22 02:33:09;;;;;;;17.15;7.35;;;;;;;23.91;66.72;99361.16;5137709;27;20071;-75
2021/06/22 02:35:38;;;;;;;12.40;7.22;;;;;;;23.72;67.51;99359.13;5136677;27;20498;-77
2021/06/22 02:38:07;;;;;;;13.70;7.10;;;;;;;23.82;67.16;99356.06;5137496;27;20050;-79
2021/06/22 02:40:35;;;;;;;14.18;6.80;;;;;;;23.78;67.46;99363.81;5137047;27;20126;-78
2021/06/22 02:43:04;;;;;;;14.82;6.80;;;;;;;23.70;68.00;99355.78;5137069;27;20040;-75
2021/06/22 02:45:33;;;;;;;16.25;7.70;;;;;;;23.59;68.39;99359.88;5136605;27;20047;-76
2021/06/22 02:48:04;;;;;;;11.98;6.97;;;;;;;23.63;68.59;99371.22;5137080;27;20051;-77
2021/06/22 02:50:33;;;;;;;15.85;7.88;;;;;;;23.61;68.50;99367.84;5136496;27;20125;-77
2021/06/22 02:53:01;;;;;;;15.20;7.40;;;;;;;23.49;69.13;99363.97;5137153;27;20051;-76
2021/06/22 02:55:29;;;;;;;15.07;7.80;;;;;;;23.59;68.67;99378.09;5136800;27;20045;-77
2021/06/22 02:57:59;;;;;;;12.35;7.32;;;;;;;23.57;68.85;99388.31;5136850;27;20079;-76
2021/06/22 03:00:31;;;;;;;14.60;7.93;;;;;;;23.57;68.92;99393.75;5136526;27;20043;-77
2021/06/22 03:03:00;;;;;;;12.65;7.32;;;;;;;23.69;68.42;99386.78;5137002;27;20158;-77
2021/06/22 03:05:30;;;;;;;14.05;7.50;;;;;;;23.75;68.20;99399.59;5136413;27;20092;-76
2021/06/22 03:08:01;;;;;;;17.75;8.02;;;;;;;23.57;68.83;99408.22;5136735;27;20440;-77
2021/06/22 03:10:30;;;;;;;15.30;8.18;;;;;;;23.61;69.11;99405.97;5136225;27;20036;-76
2021/06/22 03:12:58;;;;;;;14.55;8.18;;;;;;;23.66;68.92;99409.78;5136691;27;20051;-74
2021/06/22 03:15:27;;;;;;;14.88;8.73;;;;;;;23.70;68.53;99408.34;5135897;27;20399;-73
2021/06/22 03:17:56;;;;;;;18.65;8.98;;;;;;;23.68;68.96;99417.75;5136650;27;20391;-75
2021/06/22 03:20:24;;;;;;;13.80;8.48;;;;;;;23.79;68.29;99414.50;5136200;27;20047;-75
2021/06/22 03:22:54;;;;;;;16.05;9.32;;;;;;;23.67;68.63;99426.97;5136500;27;20437;-78
2021/06/22 03:25:22;;;;;;;14.80;8.45;;;;;;;23.55;69.28;99423.06;5135951;27;20138;-74
2021/06/22 03:27:51;;;;;;;16.60;8.00;;;;;;;23.68;69.02;99423.19;5136452;27;20054;-77
2021/06/22 03:30:20;;;;;;;13.88;8.32;;;;;;;24.01;67.54;99422.59;5136023;27;20043;-78
2021/06/22 03:32:49;;;;;;;16.17;8.13;;;;;;;24.29;66.47;99415.25;5136412;27;20043;-77
2021/06/22 03:35:17;;;;;;;17.17;9.88;;;;;;;24.43;65.90;99413.47;5135921;27;20047;-77
2021/06/22 03:37:46;;;;;;;15.40;9.38;;;;;;;24.61;65.30;99404.72;5135940;27;20047;-77
2021/06/22 03:40:19;;;;;;;17.15;8.80;;;;;;;24.73;64.80;99403.13;5136063;27;20062;-77
2021/06/22 03:42:47;;;;;;;;;;;;;;;24.96;63.74;99402.78;5136645;27;20400;-78
2021/06/22 03:45:16;;;;;;;15.25;7.97;;;;;;;25.45;62.22;99405.19;5135901;27;19920;-77
2021/06/22 03:47:45;;;;;;;11.68;7.28;;;;;;;25.83;60.75;99405.44;5135830;27;20047;-78
2021/06/22 03:50:15;;;;;;;11.80;7.65;;;;;;;26.07;59.83;99403.94;5117652;27;20039;-78
2021/06/22 03:52:44;;;;;;;13.88;7.47;;;;;;;26.41;58.49;99413.78;5135406;27;20046;-77
2021/06/22 03:55:29;;;;;;;11.88;7.07;;;;;;;26.76;57.31;99408.81;5135839;27;20078;-76
2021/06/22 03:58:01;;;;;;;16.63;7.38;;;;;;;26.73;57.07;99411.13;5135978;27;20112;-75
2021/06/22 04:00:33;;;;;;;14.73;7.30;;;;;;;26.99;56.11;99402.78;5135115;27;20095;-74
2021/06/22 04:03:01;;;;;;;16.08;7.47;;;;;;;27.44;54.69;99410.13;5135379;27;20046;-72
2021/06/22 04:05:32;;;;;;;12.85;7.30;;;;;;;27.99;53.40;99415.78;5135096;27;20035;-73
2021/06/22 04:08:01;;;;;;;17.50;8.23;;;;;;;28.15;52.60;99417.97;5135459;27;20073;-76
2021/06/22 04:10:30;;;;;;;12.68;7.35;;;;;;;28.22;52.12;99413.25;5135042;27;20071;-78
2021/06/22 04:13:00;;;;;;;11.55;7.07;;;;;;;28.33;52.06;99409.78;5135355;27;20365;-76
2021/06/22 04:15:28;;;;;;;13.35;7.35;;;;;;;28.68;51.38;99418.25;5135088;27;20043;-78
2021/06/22 04:18:06;;;;;;;13.38;7.03;;;;;;;29.12;49.82;99418.13;5135321;27;20043;-76
2021/06/22 04:20:35;;;;;;;13.30;7.00;;;;;;;29.57;48.64;99424.03;5134993;27;20050;-77
2021/06/22 04:23:03;;;;;;;15.43;7.38;;;;;;;29.64;48.29;99425.59;5134815;27;20043;-79
2021/06/22 04:25:32;;;;;;;14.73;7.03;;;;;;;29.81;47.75;99422.13;5134909;27;20552;-74
2021/06/22 04:28:03;;;;;;;11.73;7.10;;;;;;;30.07;46.90;99418.97;5134857;27;20047;-74
2021/06/22 04:30:33;;;;;;;11.32;6.90;;;;;;;30.17;46.94;99419.19;5134905;27;20039;-74
2021/06/22 04:33:02;;;;;;;14.68;7.47;;;;;;;30.42;45.98;99418.13;5135096;27;20047;-77
2021/06/22 04:35:32;;;;;;;13.55;7.13;;;;;;;30.52;45.87;99426.59;5134534;27;20091;-78
2021/06/22 04:38:01;;;;;;;14.77;7.30;;;;;;;30.74;45.13;99421.28;5134844;27;20058;-78
2021/06/22 04:40:31;;;;;;;12.48;7.45;;;;;;;30.95;45.33;99419.78;5134304;27;20043;-76
2021/06/22 04:43:00;;;;;;;14.95;7.15;;;;;;;31.62;42.61;99419.97;5134854;27;20070;-79
2021/06/22 04:45:30;;;;;;;10.73;6.53;;;;;;;31.81;42.42;99426.09;5116078;27;20090;-79
2021/06/22 04:47:59;;;;;;;9.88;6.43;;;;;;;31.28;43.00;99419.94;5134872;27;20333;-72
2021/06/22 04:50:28;;;;;;;13.50;6.43;;;;;;;31.75;42.46;99430.72;5134345;27;20039;-79
2021/06/22 04:52:56;;;;;;;13.77;6.45;;;;;;;31.68;42.32;99430.00;5134651;27;20078;-80
2021/06/22 04:55:25;;;;;;;14.25;7.57;;;;;;;31.83;42.10;99426.69;5134221;27;20136;-77
2021/06/22 04:57:58;;;;;;;11.93;6.45;;;;;;;32.28;40.99;99432.06;5134385;27;20135;-72
2021/06/22 05:00:29;;;;;;;9.05;6.47;;;;;;;32.63;40.63;99422.66;5134068;27;20388;-72
2021/06/22 05:02:58;;;;;;;12.10;7.32;;;;;;;32.43;40.76;99434.25;5134256;27;20074;-73
2021/06/22 05:05:27;;;;;;;16.77;6.72;;;;;;;32.38;40.79;99442.47;5134002;27;20448;-70
2021/06/22 05:07:55;;;;;;;14.05;7.50;;;;;;;32.49;40.58;99421.34;5134260;27;20103;-72
2021/06/22 05:10:26;;;;;;;12.48;6.95;;;;;;;32.40;40.25;99429.22;5134062;27;20038;-73
2021/06/22 05:12:54;;;;;;;14.98;6.15;;;;;;;32.87;39.42;99429.59;5134327;27;20039;-73
2021/06/22 05:15:22;;;;;;;13.38;6.75;;;;;;;33.03;38.80;99439.75;5134147;27;20536;-75
2021/06/22 05:18:00;;;;;;;13.15;6.30;;;;;;;33.10;38.96;99428.47;5133987;27;20049;-73
2021/06/22 05:20:33;;;;;;;13.98;6.97;;;;;;;32.75;39.04;99437.16;5133954;27;20035;-73
2021/06/22 05:23:01;;;;;;;14.00;6.53;;;;;;;33.26;38.02;99426.72;5133817;27;20039;-73
2021/06/22 05:25:30;;;;;;;15.93;7.18;;;;;;;32.88;39.18;99435.97;5134068;27;20031;-71
2021/06/22 05:27:58;;;;;;;15.40;6.75;;;;;;;33.47;37.89;99438.84;5133972;27;20399;-73
2021/06/22 05:30:26;;;;;;;17.35;5.95;;;;;;;33.83;36.89;99435.31;5115883;28;20055;-77
2021/06/22 05:32:55;;;;;;;12.10;6.38;;;;;;;33.73;37.72;99434.41;5134181;27;20043;-72
2021/06/22 05:35:25;;;;;;;12.48;6.88;;;;;;;33.98;37.06;99434.66;5134081;28;20043;-73
2021/06/22 05:37:53;;;;;;;14.65;6.97;;;;;;;35.12;35.14;99421.97;5133739;28;20499;-72
2021/06/22 05:40:22;;;;;;;15.65;7.07;;;;;;;34.95;35.07;99438.00;5134107;28;20045;-72
2021/06/22 05:42:50;;;;;;;15.15;6.57;;;;;;;34.87;35.25;99431.03;5133830;28;20040;-74
2021/06/22 05:45:18;;;;;;;12.25;6.38;;;;;;;35.06;34.75;99428.63;5133969;28;20035;-72
2021/06/22 05:47:48;;;;;;;14.05;7.00;;;;;;;34.62;35.34;99428.97;5115364;28;20047;-73
2021/06/22 05:50:17;;;;;;;16.83;6.28;;;;;;;34.09;36.46;99428.09;5133891;28;20100;-72
2021/06/22 05:52:46;;;;;;;16.77;6.55;;;;;;;34.54;34.82;99434.19;5133563;28;20441;-71
2021/06/22 05:55:21;;;;;;;16.23;6.97;;;;;;;34.34;35.79;99437.63;5133677;28;20047;-72
2021/06/22 05:57:51;;;;;;;17.88;6.88;;;;;;;34.36;35.31;99436.28;5133792;28;20126;-72
2021/06/22 06:00:22;;;;;;;17.00;7.00;;;;;;;35.03;33.93;99445.78;5136766;27;20035;-72
2021/06/22 06:02:51;;;;;;;17.77;6.32;;;;;;;34.77;35.26;99439.28;5137871;27;20047;-73
2021/06/22 06:05:20;;;;;;;18.23;6.57;;;;;;;35.55;33.82;99442.06;5119287;27;20074;-72
2021/06/22 06:07:51;;;;;;;13.98;6.13;;;;;;;35.57;33.20;99445.38;5119075;27;20766;-72
2021/06/22 06:10:20;;;;;;;18.73;6.75;;;;;;;35.54;33.91;99446.78;5137772;27;20395;-72
2021/06/22 06:12:48;;;;;;;15.02;6.65;;;;;;;35.47;34.23;99450.91;5137233;27;20046;-71
2021/06/22 06:15:17;;;;;;;16.42;6.55;;;;;;;35.42;33.65;99450.91;5137172;27;20453;-71
2021/06/22 06:17:46;;;;;;;14.73;6.57;;;;;;;35.36;33.74;99452.81;5137138;27;20092;-77
2021/06/22 06:20:15;;;;;;;16.17;6.45;;;;;;;35.21;33.61;99459.13;5137126;27;20039;-76
2021/06/22 06:22:46;;;;;;;17.48;6.53;;;;;;;35.00;34.37;99452.69;5137350;27;20450;-77
2021/06/22 06:25:16;;;;;;;16.70;6.70;;;;;;;34.96;34.32;99453.53;5137617;27;20039;-74
2021/06/22 06:27:52;;;;;;;17.48;6.78;;;;;;;34.95;34.63;99458.25;5136614;27;20035;-77
2021/06/22 06:30:25;;;;;;;12.98;5.75;;;;;;;35.12;33.88;99444.16;5137456;27;20031;-77
2021/06/22 06:32:54;;;;;;;19.50;6.68;;;;;;;34.88;34.28;99454.00;5136934;27;20441;-77
2021/06/22 06:35:23;;;;;;;21.00;6.85;;;;;;;34.84;34.55;99456.50;5136761;27;20052;-78
2021/06/22 06:37:52;;;;;;;24.05;7.63;;;;;;;35.30;33.84;99456.66;5136865;27;20210;-77
2021/06/22 06:40:22;;;;;;;17.85;7.00;;;;;;;34.92;34.32;99460.69;5137072;27;20066;-75
2021/06/22 06:42:50;;;;;;;18.77;6.55;;;;;;;35.14;35.03;99455.81;5136729;27;20176;-77
2021/06/22 06:45:19;;;;;;;16.40;6.85;;;;;;;35.35;33.82;99444.78;5137176;27;20071;-76
2021/06/22 06:47:49;;;;;;;19.05;6.97;;;;;;;35.39;33.85;99448.69;5136735;27;20472;-76
2021/06/22 06:50:18;;;;;;;20.65;6.82;;;;;;;34.91;35.15;99453.50;5136741;27;20076;-76
2021/06/22 06:52:46;;;;;;;19.33;6.95;;;;;;;35.24;34.10;99453.06;5136846;27;20415;-76
2021/06/22 06:55:27;;;;;;;15.75;6.93;;;;;;;35.33;34.30;99441.44;5136886;27;20039;-76
2021/06/22 06:57:59;;;;;;;;;;;;;;;35.31;34.00;99451.94;5136971;27;20523;-76
2021/06/22 07:00:29;;;;;;;16.75;7.00;;;;;;;34.91;35.23;99454.31;5137114;27;20010;-76
2021/06/22 07:02:58;;;;;;;20.75;7.40;;;;;;;34.28;35.76;99456.16;5136375;27;20069;-76
2021/06/22 07:05:26;;;;;;;21.73;7.32;;;;;;;33.81;36.79;99458.81;5136738;27;20054;-76
2021/06/22 07:07:56;;;;;;;19.17;6.47;;;;;;;33.57;36.67;99461.91;5136189;27;20049;-76
2021/06/22 07:10:25;;;;;;;18.45;6.93;;;;;;;33.42;37.18;99472.81;5117550;28;20381;-76
2021/06/22 07:12:55;;;;;;;20.40;7.45;;;;;;;33.42;37.40;99470.06;5136029;27;20489;-76
2021/06/22 07:15:26;;;;;;;25.40;13.15;;;;;;;33.44;37.32;99476.16;5136619;27;20070;-76
2021/06/22 07:17:55;;;;;;;21.38;9.20;;;;;;;33.33;37.32;99471.59;5136143;27;20039;-76
2021/06/22 07:20:23;;;;;;;33.42;7.45;;;;;;;33.62;36.73;99474.13;5136236;27;20464;-76
2021/06/22 07:22:52;;;;;;;18.05;7.07;;;;;;;33.33;36.91;99471.59;5136203;27;20058;-76
2021/06/22 07:25:20;;;;;;;27.08;7.78;;;;;;;33.14;37.87;99479.38;5136192;27;20050;-76
2021/06/22 07:27:50;;;;;;;19.95;6.82;;;;;;;33.11;36.92;99474.38;5136110;27;20066;-76
2021/06/22 07:30:19;;;;;;;17.00;6.88;;;;;;;32.92;37.43;99473.03;5136215;27;20340;-75
2021/06/22 07:32:49;;;;;;;15.90;6.65;;;;;;;32.41;38.40;99481.41;5135601;27;20043;-76
2021/06/22 07:35:17;;;;;;;19.35;7.00;;;;;;;32.39;38.81;99478.06;5136084;27;20039;-76
2021/06/22 07:37:46;;;;;;;26.08;7.72;;;;;;;32.54;38.90;99480.22;5135759;27;20486;-76
2021/06/22 07:40:16;;;;;;;20.92;6.88;;;;;;;32.29;38.60;99477.88;5136087;27;20050;-76
2021/06/22 07:42:46;;;;;;;26.83;7.32;;;;;;;32.36;38.39;99486.88;5135489;27;20043;-76
2021/06/22 07:45:16;;;;;;;19.33;6.35;;;;;;;32.13;38.20;99473.22;5136076;27;20559;-76
2021/06/22 07:47:45;;;;;;;24.27;6.85;;;;;;;32.35;38.10;99479.69;5135601;27;20039;-76
2021/06/22 07:50:15;;;;;;;23.73;7.22;;;;;;;32.38;38.21;99476.41;5135626;27;20126;-76
2021/06/22 07:52:44;;;;;;;24.92;7.13;;;;;;;32.53;38.07;99484.09;5135809;27;20047;-76
2021/06/22 07:55:14;;;;;;;22.85;7.55;;;;;;;32.05;38.42;99481.94;5135891;27;20043;-75
2021/06/22 07:57:44;;;;;;;18.38;7.30;;;;;;;31.67;39.59;99480.72;5116919;27;20062;-75
2021/06/22 08:00:23;;;;;;;17.85;7.22;;;;;;;31.61;40.27;99476.19;5136482;27;20045;-75
2021/06/22 08:02:53;;;;;;;21.60;6.70;;;;;;;32.04;39.16;99475.59;5134398;27;20055;-75
2021/06/22 08:05:25;;;;;;;22.58;6.95;;;;;;;31.98;39.04;99475.75;5135619;27;20035;-75
2021/06/22 08:07:54;;;;;;;20.45;7.10;;;;;;;32.09;39.63;99477.56;5135333;27;20105;-75
2021/06/22 08:10:23;;;;;;;19.65;6.78;;;;;;;32.21;39.22;99478.31;5135564;27;20468;-76
2021/06/22 08:12:51;;;;;;;25.70;7.60;;;;;;;32.34;38.94;99486.28;5134995;27;20126;-76
2021/06/22 08:15:21;;;;;;;21.58;6.70;;;;;;;32.13;39.18;99478.72;5135627;27;20043;-76
2021/06/22 08:17:51;;;;;;;20.48;7.30;;;;;;;31.82;39.59;99475.47;5135256;27;20039;-77
2021/06/22 08:20:19;;;;;;;31.95;7.07;;;;;;;31.77;39.30;99483.66;5135360;27;20087;-76
2021/06/22 08:22:53;;;;;;;23.23;7.05;;;;;;;31.86;40.03;99481.34;5134722;27;20066;-77
2021/06/22 08:25:23;;;;;;;19.40;6.82;;;;;;;32.03;39.29;99484.91;5135417;27;20091;-76
2021/06/22 08:27:52;;;;;;;20.52;7.28;;;;;;;32.05;39.27;99484.69;5134974;27;20043;-76
2021/06/22 08:30:26;;;;;;;21.38;6.85;;;;;;;32.30;38.82;99489.78;5134942;27;20039;-76
2021/06/22 08:32:55;;;;;;;21.40;7.15;;;;;;;32.19;39.04;99488.78;5134727;27;20559;-76
2021/06/22 08:35:25;;;;;;;26.90;7.15;;;;;;;32.41;38.61;99484.16;5135201;27;20039;-76
2021/06/22 08:37:56;;;;;;;28.88;6.63;;;;;;;32.52;37.98;99489.84;5134924;27;20452;-76
2021/06/22 08:40:24;;;;;;;22.25;7.22;;;;;;;32.41;38.43;99494.38;5135050;27;20044;-76
2021/06/22 08:42:55;;;;;;;34.63;7.55;;;;;;;32.44;38.39;99485.59;5134849;27;20047;-76
2021/06/22 08:45:24;;;;;;;25.65;6.97;;;;;;;32.38;38.11;99487.44;5134969;27;20035;-76
2021/06/22 08:47:54;;;;;;;22.02;6.93;;;;;;;32.26;38.51;99489.44;5134626;27;20043;-76
2021/06/22 08:50:23;;;;;;;20.98;6.32;;;;;;;32.36;37.61;99486.88;5134416;27;20047;-76
2021/06/22 08:52:52;;;;;;;24.30;6.72;;;;;;;32.32;38.85;99493.97;5134770;27;20089;-76
2021/06/22 08:55:29;;;;;;;23.67;7.47;;;;;;;32.46;38.48;99494.47;5134473;27;20047;-76
2021/06/22 08:58:01;;;;;;;27.27;7.10;;;;;;;32.47;37.91;99499.72;5115738;27;20560;-76
2021/06/22 09:00:31;;;;;;;33.72;7.35;;;;;;;32.28;38.48;99501.06;5116021;27;20061;-76
2021/06/22 09:03:11;;;;;;;20.73;7.47;;;;;;;32.10;39.25;99496.63;5134232;27;20035;-76
2021/06/22 09:05:40;;;;;;;20.88;7.15;;;;;;;32.06;38.68;99495.47;5134383;27;20070;-74
2021/06/22 09:08:18;;;;;;;23.60;7.35;;;;;;;32.15;39.04;99499.47;5134194;27;20039;-76
2021/06/22 09:10:50;;;;;;;21.77;6.80;;;;;;;32.09;39.03;99499.63;5134405;27;20043;-77
2021/06/22 09:13:21;;;;;;;21.10;7.47;;;;;;;32.13;38.75;99492.53;5134511;27;20085;-76
2021/06/22 09:15:55;;;;;;;27.13;8.02;;;;;;;32.39;38.50;99494.63;5134196;27;20063;-76
2021/06/22 09:18:33;;;;;;;23.80;7.47;;;;;;;32.83;38.31;99496.66;5134201;27;20051;-76
2021/06/22 09:21:04;;;;;;;24.42;7.53;;;;;;;32.81;37.41;99499.63;5134204;27;20518;-76
2021/06/22 09:23:34;;;;;;;30.05;8.27;;;;;;;32.76;37.67;99502.34;5134403;27;20042;-76
2021/06/22 09:26:11;;;;;;;21.27;7.43;;;;;;;32.59;38.67;99504.31;5133856;27;20046;-76
2021/06/22 09:28:41;;;;;;;26.30;7.60;;;;;;;32.58;37.99;99503.47;5134227;27;20053;-75
2021/06/22 09:31:10;;;;;;;27.05;8.35;;;;;;;32.64;38.41;99507.16;5133972;27;20170;-75
2021/06/22 09:33:40;;;;;;;26.55;7.55;;;;;;;32.54;38.01;99510.59;5133420;27;20499;-75
2021/06/22 09:36:15;;;;;;;30.20;7.78;;;;;;;32.78;37.93;99510.38;5133835;27;20040;-75
2021/06/22 09:38:45;;;;;;;26.27;7.35;;;;;;;32.94;37.74;99513.13;5134256;28;20049;-77
2021/06/22 09:41:21;;;;;;;22.02;8.18;;;;;;;33.05;36.94;99510.47;5134321;28;20035;-74
2021/06/22 09:43:53;;;;;;;25.98;7.53;;;;;;;32.84;37.85;99512.16;5115291;28;20134;-77
2021/06/22 09:46:35;;;;;;;;;;;;;;;32.71;37.88;99518.81;5134391;28;20036;-75
2021/06/22 09:49:05;;;;;;;27.02;8.13;;;;;;;32.70;37.97;99517.16;5133452;28;19942;-75
2021/06/22 09:51:37;;;;;;;26.70;8.35;;;;;;;32.43;38.52;99511.53;5133990;28;20039;-76
2021/06/22 09:54:16;;;;;;;25.08;8.18;;;;;;;32.50;38.18;99516.84;5133618;28;20039;-76
2021/06/22 09:57:02;;;;;;;28.83;7.93;;;;;;;32.67;37.94;99513.00;5133554;27;20373;-77
2021/06/22 09:59:32;;;;;;;30.50;8.05;;;;;;;32.88;37.69;99503.09;5134007;28;20451;-75
2021/06/22 10:02:11;;;;;;;27.25;7.18;;;;;;;33.13;37.15;99510.03;5133471;28;20039;-76
2021/06/22 10:04:43;;;;;;;25.63;7.88;;;;;;;33.28;36.85;99512.97;5133946;28;20548;-75
2021/06/22 10:07:12;;;;;;;32.85;8.27;;;;;;;33.13;36.39;99512.78;5133987;28;20046;-76
2021/06/22 10:09:44;;;;;;;31.02;7.35;;;;;;;33.01;36.85;99518.47;5133741;28;20043;-74
2021/06/22 10:12:14;;;;;;;26.85;8.23;;;;;;;33.18;36.33;99513.69;5133539;28;20036;-76
2021/06/22 10:14:44;;;;;;;25.63;6.95;;;;;;;33.05;36.35;99513.25;5133707;28;20066;-76
2021/06/22 10:17:15;;;;;;;31.45;7.32;;;;;;;32.81;36.59;99512.59;5133681;28;20039;-76
2021/06/22 10:19:45;;;;;;;24.65;7.93;;;;;;;32.99;36.90;99521.44;5133892;28;20064;-76
2021/06/22 10:22:16;;;;;;;24.67;6.88;;;;;;;33.11;36.40;99512.22;5133876;28;20521;-76
2021/06/22 10:24:48;;;;;;;23.98;7.28;;;;;;;32.83;36.57;99505.78;5133581;28;20050;-76
2021/06/22 10:27:19;;;;;;;25.45;7.68;;;;;;;32.83;37.13;99511.31;5133865;28;20039;-76
2021/06/22 10:29:50;;;;;;;27.83;7.10;;;;;;;33.11;36.65;99507.53;5133133;28;20043;-76
2021/06/22 10:32:21;;;;;;;28.88;7.57;;;;;;;33.36;36.16;99515.31;5133773;28;20127;-76
2021/06/22 10:34:52;;;;;;;24.75;7.72;;;;;;;33.59;35.44;99503.97;5133536;28;20080;-76
2021/06/22 10:37:25;;;;;;;29.73;7.15;;;;;;;33.79;35.42;99503.31;5133666;28;20444;-76
2021/06/22 10:39:56;;;;;;;24.98;7.35;;;;;;;33.80;35.53;99501.41;5133428;28;20043;-77
2021/06/22 10:42:26;;;;;;;27.58;8.02;;;;;;;33.80;34.58;99498.63;5133579;28;20040;-77
2021/06/22 10:45:02;;;;;;;30.27;7.07;;;;;;;33.85;34.90;99505.03;5133361;27;20050;-77
2021/06/22 10:47:33;;;;;;;28.88;7.78;;;;;;;33.84;34.86;99510.81;5137171;27;20046;-77
2021/06/22 10:50:27;;;;;;;23.33;7.22;;;;;;;33.74;34.68;99511.56;5136890;27;20070;-77
2021/06/22 10:52:58;;;;;;;28.65;7.85;;;;;;;33.46;35.35;99518.19;5134251;27;20059;-77
2021/06/22 10:55:58;;;;;;;26.92;7.13;;;;;;;33.73;34.41;99518.19;5137138;27;20043;-76
2021/06/22 10:58:28;;;;;;;27.17;7.82;;;;;;;33.86;34.56;99515.00;5053148;28;20068;-76
2021/06/22 11:01:12;;;;;;;25.40;7.65;;;;;;;34.00;34.26;99509.91;5119327;27;20055;-75
2021/06/22 11:03:41;;;;;;;26.70;7.50;;;;;;;33.95;34.21;99515.38;5136684;27;20376;-75
2021/06/22 11:06:29;;;;;;;21.10;7.28;;;;;;;33.94;34.64;99510.94;5136610;27;20054;-76
2021/06/22 11:09:21;;;;;;;29.83;8.07;;;;;;;34.01;34.58;99505.22;5136350;27;20064;-77
2021/06/22 11:12:09;;;;;;;29.50;7.18;;;;;;;34.12;34.66;99504.19;5116840;27;20373;-77
2021/06/22 11:15:07;;;;;;;26.95;7.32;;;;;;;34.29;34.09;99506.81;5136460;27;20467;-76
2021/06/22 11:17:55;;;;;;;26.33;7.95;;;;;;;34.18;33.93;99507.84;5136474;27;20035;-75
2021/06/22 11:20:23;;;;;;;26.58;7.20;;;;;;;34.15;33.94;99509.19;5136633;27;20075;-76
2021/06/22 11:23:09;;;;;;;30.23;7.20;;;;;;;34.38;33.32;99508.00;5136079;27;20039;-76
2021/06/22 11:25:49;;;;;;;28.65;7.63;;;;;;;34.26;33.79;99508.19;5136151;27;20071;-76
2021/06/22 11:28:19;;;;;;;30.42;8.32;;;;;;;34.31;33.78;99510.97;5136230;27;20096;-76
2021/06/22 11:30:52;;;;;;;25.10;6.90;;;;;;;34.18;33.98;99505.06;5136005;27;20096;-76
2021/06/22 11:33:35;;;;;;;25.15;7.22;;;;;;;34.32;33.48;99501.56;5117859;27;20051;-77
2021/06/22 11:36:33;;;;;;;35.45;7.65;;;;;;;34.26;33.69;99507.31;5136138;27;20035;-76
2021/06/22 11:39:23;;;;;;;22.42;7.50;;;;;;;34.24;34.08;99504.00;5136067;27;20092;-75
2021/06/22 11:42:19;;;;;;;33.70;7.97;;;;;;;34.28;33.81;99499.63;5130982;27;20051;-76
2021/06/22 11:44:50;;;;;;;27.27;7.60;;;;;;;34.44;34.26;99498.63;5135999;27;20043;-75